Allen Jay, North Carolina
Current Conditions -  °F | °C
As of 7:54 PM on Saturday 25 Oct 2014 (Local Time) from KGSO Reporting Station
Few Clouds Few Clouds  
Wind Chill: 61°   Ceiling: Unl
Heat Index: 61°   Visibility: 10mi
Dew Point: 38°   Wind: 7mph
Humidity: 42%   Direction: 240°WSW
Pressure: 29.91"   Gusts: NA
Location:  35.9136°N, 79.9465°W
Report Text: KGSO 252354Z 24006KT 10SM FEW250 16/03 A2991 RMK AO2 SLP128 T01610033 10228 20161 53001
Loading
Personal Weather Stations






























Interactive Weather Map New forecast layout! Learn more

10-Day Weather Forecast

Advertisements
Track Severe Weather on mobile